sensor_id;sensor_type;location;lat;lon;timestamp;pressure;altitude;pressure_sealevel;temperature;humidity
35908;BME280;22003;50.320;8.054;2024-02-26T00:01:21;97901.47;;;5.14;87.54
35908;BME280;22003;50.320;8.054;2024-02-26T00:03:46;97901.63;;;5.13;88.23
35908;BME280;22003;50.320;8.054;2024-02-26T00:06:12;97899.28;;;4.89;89.82
35908;BME280;22003;50.320;8.054;2024-02-26T00:08:37;97904.03;;;4.95;90.20
35908;BME280;22003;50.320;8.054;2024-02-26T00:11:03;97896.97;;;4.74;91.89
35908;BME280;22003;50.320;8.054;2024-02-26T00:13:28;97886.41;;;4.65;93.58
35908;BME280;22003;50.320;8.054;2024-02-26T00:15:53;97901.84;;;4.58;94.50
35908;BME280;22003;50.320;8.054;2024-02-26T00:18:18;97889.47;;;4.49;96.15
35908;BME280;22003;50.320;8.054;2024-02-26T00:20:44;97889.75;;;4.46;97.09
35908;BME280;22003;50.320;8.054;2024-02-26T00:23:09;97874.53;;;4.40;97.36
35908;BME280;22003;50.320;8.054;2024-02-26T00:25:34;97877.84;;;4.42;96.94
35908;BME280;22003;50.320;8.054;2024-02-26T00:28:01;97865.38;;;4.55;96.86
35908;BME280;22003;50.320;8.054;2024-02-26T00:30:26;97866.84;;;4.48;96.72
35908;BME280;22003;50.320;8.054;2024-02-26T00:32:51;97857.69;;;4.42;97.29
35908;BME280;22003;50.320;8.054;2024-02-26T00:35:16;97836.72;;;4.42;97.25
35908;BME280;22003;50.320;8.054;2024-02-26T00:37:45;97843.91;;;4.61;96.90
35908;BME280;22003;50.320;8.054;2024-02-26T00:40:10;97829.59;;;4.75;96.00
35908;BME280;22003;50.320;8.054;2024-02-26T00:42:36;97827.81;;;4.55;95.63
35908;BME280;22003;50.320;8.054;2024-02-26T00:45:01;97830.72;;;4.72;95.84
35908;BME280;22003;50.320;8.054;2024-02-26T00:47:26;97827.88;;;4.64;94.60
35908;BME280;22003;50.320;8.054;2024-02-26T00:49:51;97824.81;;;4.59;94.48
35908;BME280;22003;50.320;8.054;2024-02-26T00:52:17;97830.84;;;4.50;95.15
35908;BME280;22003;50.320;8.054;2024-02-26T00:54:42;97832.00;;;4.57;95.33
35908;BME280;22003;50.320;8.054;2024-02-26T00:57:07;97829.75;;;4.73;94.78
35908;BME280;22003;50.320;8.054;2024-02-26T00:59:32;97831.03;;;4.58;94.86
35908;BME280;22003;50.320;8.054;2024-02-26T01:01:58;97824.84;;;4.90;93.92
35908;BME280;22003;50.320;8.054;2024-02-26T01:04:25;97835.06;;;4.62;94.33
35908;BME280;22003;50.320;8.054;2024-02-26T01:06:50;97833.88;;;4.76;94.45
35908;BME280;22003;50.320;8.054;2024-02-26T01:09:15;97820.78;;;4.55;95.44
35908;BME280;22003;50.320;8.054;2024-02-26T01:11:42;97814.91;;;4.63;94.83
35908;BME280;22003;50.320;8.054;2024-02-26T01:14:07;97811.63;;;4.49;96.66
35908;BME280;22003;50.320;8.054;2024-02-26T01:16:32;97815.97;;;4.60;95.94
35908;BME280;22003;50.320;8.054;2024-02-26T01:18:57;97806.44;;;4.80;93.21
35908;BME280;22003;50.320;8.054;2024-02-26T01:21:23;97810.34;;;5.26;92.01
35908;BME280;22003;50.320;8.054;2024-02-26T01:23:48;97824.00;;;5.20;92.47
35908;BME280;22003;50.320;8.054;2024-02-26T01:26:13;97816.50;;;5.15;92.20
35908;BME280;22003;50.320;8.054;2024-02-26T01:28:39;97810.56;;;4.83;92.37
35908;BME280;22003;50.320;8.054;2024-02-26T01:31:04;97807.31;;;4.90;92.25
35908;BME280;22003;50.320;8.054;2024-02-26T01:33:31;97820.22;;;5.03;91.66
35908;BME280;22003;50.320;8.054;2024-02-26T01:35:57;97825.53;;;5.22;92.35
35908;BME280;22003;50.320;8.054;2024-02-26T01:38:22;97816.41;;;5.26;90.78
35908;BME280;22003;50.320;8.054;2024-02-26T01:40:47;97821.31;;;5.00;90.63
35908;BME280;22003;50.320;8.054;2024-02-26T01:43:12;97825.03;;;4.98;91.36
35908;BME280;22003;50.320;8.054;2024-02-26T01:45:38;97840.47;;;4.91;91.83
35908;BME280;22003;50.320;8.054;2024-02-26T01:48:03;97838.22;;;4.87;92.47
35908;BME280;22003;50.320;8.054;2024-02-26T01:50:29;97819.88;;;5.17;92.01
35908;BME280;22003;50.320;8.054;2024-02-26T01:52:55;97825.34;;;5.14;91.64
35908;BME280;22003;50.320;8.054;2024-02-26T01:55:22;97826.53;;;5.31;90.62
35908;BME280;22003;50.320;8.054;2024-02-26T01:57:49;97818.72;;;5.10;89.87
35908;BME280;22003;50.320;8.054;2024-02-26T02:00:17;97813.69;;;4.97;90.24
35908;BME280;22003;50.320;8.054;2024-02-26T02:02:43;97819.84;;;4.87;91.77
35908;BME280;22003;50.320;8.054;2024-02-26T02:05:12;97804.81;;;4.58;93.01
35908;BME280;22003;50.320;8.054;2024-02-26T02:07:38;97802.63;;;4.42;95.77
35908;BME280;22003;50.320;8.054;2024-02-26T02:10:05;97823.97;;;4.38;97.37
35908;BME280;22003;50.320;8.054;2024-02-26T02:12:30;97820.34;;;5.01;97.46
35908;BME280;22003;50.320;8.054;2024-02-26T02:14:58;97826.56;;;5.00;96.33
35908;BME280;22003;50.320;8.054;2024-02-26T02:17:23;97833.19;;;5.04;94.23
35908;BME280;22003;50.320;8.054;2024-02-26T02:19:48;97735.75;;;4.27;93.36
35908;BME280;22003;50.320;8.054;2024-02-26T02:22:14;97831.03;;;5.19;93.48
35908;BME280;22003;50.320;8.054;2024-02-26T02:24:39;97836.38;;;5.08;93.80
35908;BME280;22003;50.320;8.054;2024-02-26T02:27:04;97826.59;;;4.80;94.15
35908;BME280;22003;50.320;8.054;2024-02-26T02:29:30;97840.75;;;4.67;94.44
35908;BME280;22003;50.320;8.054;2024-02-26T02:31:56;97835.59;;;4.87;95.40
35908;BME280;22003;50.320;8.054;2024-02-26T02:34:22;97842.41;;;4.99;95.28
35908;BME280;22003;50.320;8.054;2024-02-26T02:36:51;97835.72;;;5.06;95.35
35908;BME280;22003;50.320;8.054;2024-02-26T02:39:17;97824.94;;;4.79;95.84
35908;BME280;22003;50.320;8.054;2024-02-26T02:41:42;97826.47;;;4.60;96.46
35908;BME280;22003;50.320;8.054;2024-02-26T02:44:07;97842.53;;;4.46;97.04
35908;BME280;22003;50.320;8.054;2024-02-26T02:46:33;97833.84;;;4.45;97.88
35908;BME280;22003;50.320;8.054;2024-02-26T02:49:00;97747.59;;;4.21;97.37
35908;BME280;22003;50.320;8.054;2024-02-26T02:51:25;97744.41;;;4.18;97.05
35908;BME280;22003;50.320;8.054;2024-02-26T02:53:50;97841.28;;;4.92;96.85
35908;BME280;22003;50.320;8.054;2024-02-26T02:56:16;97845.56;;;4.93;96.86
35908;BME280;22003;50.320;8.054;2024-02-26T02:58:41;97766.06;;;4.41;96.16
35908;BME280;22003;50.320;8.054;2024-02-26T03:01:06;97853.59;;;4.70;96.69
35908;BME280;22003;50.320;8.054;2024-02-26T03:03:31;97797.25;;;4.44;96.57
35908;BME280;22003;50.320;8.054;2024-02-26T03:05:57;97865.25;;;4.78;96.58
35908;BME280;22003;50.320;8.054;2024-02-26T03:08:22;97868.38;;;4.71;96.57
35908;BME280;22003;50.320;8.054;2024-02-26T03:10:47;97859.44;;;4.53;95.39
35908;BME280;22003;50.320;8.054;2024-02-26T03:13:13;97855.28;;;4.50;95.14
35908;BME280;22003;50.320;8.054;2024-02-26T03:15:38;97864.09;;;4.70;94.90
35908;BME280;22003;50.320;8.054;2024-02-26T03:18:04;97863.72;;;4.54;95.68
35908;BME280;22003;50.320;8.054;2024-02-26T03:20:29;97867.56;;;4.50;96.29
35908;BME280;22003;50.320;8.054;2024-02-26T03:22:54;97866.91;;;4.37;97.15
35908;BME280;22003;50.320;8.054;2024-02-26T03:25:19;97864.97;;;4.81;97.90
35908;BME280;22003;50.320;8.054;2024-02-26T03:27:45;97870.66;;;5.07;95.18
35908;BME280;22003;50.320;8.054;2024-02-26T03:30:10;97869.91;;;4.74;94.68
35908;BME280;22003;50.320;8.054;2024-02-26T03:32:35;97857.91;;;5.02;94.36
35908;BME280;22003;50.320;8.054;2024-02-26T03:35:01;97861.53;;;4.80;93.15
35908;BME280;22003;50.320;8.054;2024-02-26T03:37:27;97851.81;;;4.71;94.55
35908;BME280;22003;50.320;8.054;2024-02-26T03:39:52;97853.53;;;5.12;94.08
35908;BME280;22003;50.320;8.054;2024-02-26T03:42:18;97858.59;;;4.94;94.67
35908;BME280;22003;50.320;8.054;2024-02-26T03:44:43;97862.75;;;4.76;95.31
35908;BME280;22003;50.320;8.054;2024-02-26T03:47:09;97861.97;;;4.85;96.28
35908;BME280;22003;50.320;8.054;2024-02-26T03:49:34;97855.44;;;4.80;96.65
35908;BME280;22003;50.320;8.054;2024-02-26T03:51:59;97860.25;;;4.74;96.74
35908;BME280;22003;50.320;8.054;2024-02-26T03:54:25;97864.28;;;4.79;96.84
35908;BME280;22003;50.320;8.054;2024-02-26T03:56:50;97864.38;;;4.67;96.85
35908;BME280;22003;50.320;8.054;2024-02-26T03:59:15;97869.53;;;4.79;96.98
35908;BME280;22003;50.320;8.054;2024-02-26T04:01:45;97874.47;;;4.72;97.54
35908;BME280;22003;50.320;8.054;2024-02-26T04:04:11;97877.09;;;4.72;97.46
35908;BME280;22003;50.320;8.054;2024-02-26T04:06:36;97870.69;;;4.65;97.61
35908;BME280;22003;50.320;8.054;2024-02-26T04:09:02;97855.00;;;4.33;98.40
35908;BME280;22003;50.320;8.054;2024-02-26T04:11:28;97868.16;;;4.21;99.20
35908;BME280;22003;50.320;8.054;2024-02-26T04:13:54;97863.19;;;4.18;100.00
35908;BME280;22003;50.320;8.054;2024-02-26T04:16:19;97874.53;;;4.40;100.00
35908;BME280;22003;50.320;8.054;2024-02-26T04:18:44;97871.50;;;4.65;100.00
35908;BME280;22003;50.320;8.054;2024-02-26T04:21:10;97875.72;;;4.36;100.00
35908;BME280;22003;50.320;8.054;2024-02-26T04:23:35;97851.75;;;4.61;100.00
35908;BME280;22003;50.320;8.054;2024-02-26T04:26:00;97865.47;;;4.33;100.00
35908;BME280;22003;50.320;8.054;2024-02-26T04:28:25;97876.63;;;4.46;100.00
35908;BME280;22003;50.320;8.054;2024-02-26T04:30:53;97874.25;;;4.43;100.00
35908;BME280;22003;50.320;8.054;2024-02-26T04:33:19;97868.66;;;4.68;100.00
35908;BME280;22003;50.320;8.054;2024-02-26T04:35:44;97875.47;;;4.81;100.00
35908;BME280;22003;50.320;8.054;2024-02-26T04:38:09;97876.38;;;4.49;100.00
35908;BME280;22003;50.320;8.054;2024-02-26T04:40:34;97875.22;;;4.42;100.00
35908;BME280;22003;50.320;8.054;2024-02-26T04:43:00;97880.06;;;4.26;100.00
35908;BME280;22003;50.320;8.054;2024-02-26T04:45:25;97877.25;;;4.17;100.00
35908;BME280;22003;50.320;8.054;2024-02-26T04:47:50;97875.00;;;4.13;100.00
35908;BME280;22003;50.320;8.054;2024-02-26T04:50:15;97872.94;;;4.16;100.00
35908;BME280;22003;50.320;8.054;2024-02-26T04:52:41;97879.28;;;4.14;100.00
35908;BME280;22003;50.320;8.054;2024-02-26T04:55:07;97877.47;;;4.14;100.00
35908;BME280;22003;50.320;8.054;2024-02-26T04:57:32;97876.19;;;4.09;100.00
35908;BME280;22003;50.320;8.054;2024-02-26T04:59:57;97885.09;;;4.17;100.00
35908;BME280;22003;50.320;8.054;2024-02-26T05:02:23;97882.06;;;4.33;100.00
35908;BME280;22003;50.320;8.054;2024-02-26T05:04:49;97889.25;;;4.52;100.00
35908;BME280;22003;50.320;8.054;2024-02-26T05:07:14;97888.28;;;4.53;100.00
35908;BME280;22003;50.320;8.054;2024-02-26T05:09:42;97869.56;;;4.26;100.00
35908;BME280;22003;50.320;8.054;2024-02-26T05:12:08;97877.81;;;4.21;100.00
35908;BME280;22003;50.320;8.054;2024-02-26T05:14:34;97881.06;;;4.13;100.00
35908;BME280;22003;50.320;8.054;2024-02-26T05:16:59;97879.13;;;4.15;100.00
35908;BME280;22003;50.320;8.054;2024-02-26T05:19:24;97883.88;;;4.21;100.00
35908;BME280;22003;50.320;8.054;2024-02-26T05:21:49;97883.81;;;4.12;100.00
35908;BME280;22003;50.320;8.054;2024-02-26T05:24:15;97877.94;;;4.19;100.00
35908;BME280;22003;50.320;8.054;2024-02-26T05:26:42;97832.78;;;3.95;100.00
35908;BME280;22003;50.320;8.054;2024-02-26T05:29:08;97878.19;;;4.16;100.00
35908;BME280;22003;50.320;8.054;2024-02-26T05:31:33;97884.97;;;4.19;100.00
35908;BME280;22003;50.320;8.054;2024-02-26T05:33:58;97876.97;;;4.20;100.00
35908;BME280;22003;50.320;8.054;2024-02-26T05:36:23;97884.63;;;4.44;100.00
35908;BME280;22003;50.320;8.054;2024-02-26T05:38:49;97889.28;;;4.41;100.00
35908;BME280;22003;50.320;8.054;2024-02-26T05:41:15;97884.44;;;4.57;100.00
35908;BME280;22003;50.320;8.054;2024-02-26T05:43:41;97893.88;;;4.28;100.00
35908;BME280;22003;50.320;8.054;2024-02-26T05:46:06;97886.06;;;4.37;100.00
35908;BME280;22003;50.320;8.054;2024-02-26T05:48:31;97891.84;;;4.52;100.00
35908;BME280;22003;50.320;8.054;2024-02-26T05:50:57;97893.38;;;4.55;100.00
35908;BME280;22003;50.320;8.054;2024-02-26T05:53:22;97901.97;;;4.78;100.00
35908;BME280;22003;50.320;8.054;2024-02-26T05:55:47;97903.78;;;4.56;100.00
35908;BME280;22003;50.320;8.054;2024-02-26T05:58:13;97898.31;;;4.48;100.00
35908;BME280;22003;50.320;8.054;2024-02-26T06:00:39;97912.50;;;4.45;100.00
35908;BME280;22003;50.320;8.054;2024-02-26T06:03:04;97900.47;;;4.22;100.00
35908;BME280;22003;50.320;8.054;2024-02-26T06:05:29;97908.75;;;4.27;100.00
35908;BME280;22003;50.320;8.054;2024-02-26T06:07:54;97909.63;;;4.28;100.00
35908;BME280;22003;50.320;8.054;2024-02-26T06:10:20;97912.25;;;4.48;100.00
35908;BME280;22003;50.320;8.054;2024-02-26T06:12:46;97920.09;;;4.28;100.00
35908;BME280;22003;50.320;8.054;2024-02-26T06:15:12;97924.06;;;4.43;100.00
35908;BME280;22003;50.320;8.054;2024-02-26T06:17:37;97871.59;;;4.01;100.00
35908;BME280;22003;50.320;8.054;2024-02-26T06:20:02;97923.06;;;4.34;100.00
35908;BME280;22003;50.320;8.054;2024-02-26T06:22:30;97929.25;;;4.33;100.00
35908;BME280;22003;50.320;8.054;2024-02-26T06:24:55;97931.38;;;4.39;100.00
35908;BME280;22003;50.320;8.054;2024-02-26T06:27:20;97934.22;;;4.36;100.00
35908;BME280;22003;50.320;8.054;2024-02-26T06:29:46;97939.28;;;4.49;100.00
35908;BME280;22003;50.320;8.054;2024-02-26T06:32:13;97939.75;;;4.33;100.00
35908;BME280;22003;50.320;8.054;2024-02-26T06:34:39;97929.84;;;4.26;100.00
35908;BME280;22003;50.320;8.054;2024-02-26T06:37:06;97952.94;;;4.32;100.00
35908;BME280;22003;50.320;8.054;2024-02-26T06:39:31;97951.16;;;4.64;100.00
35908;BME280;22003;50.320;8.054;2024-02-26T06:41:56;97950.66;;;4.38;100.00
35908;BME280;22003;50.320;8.054;2024-02-26T06:44:26;97961.03;;;4.40;100.00
35908;BME280;22003;50.320;8.054;2024-02-26T06:46:51;97964.97;;;4.45;100.00
35908;BME280;22003;50.320;8.054;2024-02-26T06:49:17;97965.00;;;4.55;100.00
35908;BME280;22003;50.320;8.054;2024-02-26T06:51:42;97967.63;;;4.34;100.00
35908;BME280;22003;50.320;8.054;2024-02-26T06:54:07;97967.03;;;4.31;100.00
35908;BME280;22003;50.320;8.054;2024-02-26T06:56:33;97974.09;;;4.19;100.00
35908;BME280;22003;50.320;8.054;2024-02-26T06:58:58;97975.16;;;4.16;100.00
35908;BME280;22003;50.320;8.054;2024-02-26T07:01:23;97973.63;;;4.14;100.00
35908;BME280;22003;50.320;8.054;2024-02-26T07:03:48;97980.38;;;4.16;100.00
35908;BME280;22003;50.320;8.054;2024-02-26T07:06:14;97980.16;;;4.19;100.00
35908;BME280;22003;50.320;8.054;2024-02-26T07:08:39;97989.69;;;4.20;100.00
35908;BME280;22003;50.320;8.054;2024-02-26T07:11:07;97987.44;;;4.16;100.00
35908;BME280;22003;50.320;8.054;2024-02-26T07:13:33;97994.22;;;4.18;100.00
35908;BME280;22003;50.320;8.054;2024-02-26T07:15:59;97989.19;;;4.27;100.00
35908;BME280;22003;50.320;8.054;2024-02-26T07:18:24;98003.75;;;4.19;100.00
35908;BME280;22003;50.320;8.054;2024-02-26T07:20:49;97990.88;;;4.16;100.00
35908;BME280;22003;50.320;8.054;2024-02-26T07:23:14;97997.78;;;4.29;100.00
35908;BME280;22003;50.320;8.054;2024-02-26T07:25:40;98000.41;;;4.29;100.00
35908;BME280;22003;50.320;8.054;2024-02-26T07:28:06;97993.09;;;4.32;100.00
35908;BME280;22003;50.320;8.054;2024-02-26T07:30:31;97999.28;;;4.42;100.00
35908;BME280;22003;50.320;8.054;2024-02-26T07:32:56;98011.25;;;4.24;100.00
35908;BME280;22003;50.320;8.054;2024-02-26T07:35:22;98016.25;;;4.16;100.00
35908;BME280;22003;50.320;8.054;2024-02-26T07:37:48;98024.72;;;4.19;100.00
35908;BME280;22003;50.320;8.054;2024-02-26T07:40:15;98015.41;;;4.15;100.00
35908;BME280;22003;50.320;8.054;2024-02-26T07:42:40;98013.28;;;4.20;100.00
35908;BME280;22003;50.320;8.054;2024-02-26T07:45:05;98017.34;;;4.13;100.00
35908;BME280;22003;50.320;8.054;2024-02-26T07:47:31;98015.69;;;4.01;100.00
35908;BME280;22003;50.320;8.054;2024-02-26T07:49:56;98012.09;;;4.13;100.00
35908;BME280;22003;50.320;8.054;2024-02-26T07:52:22;98012.81;;;4.15;100.00
35908;BME280;22003;50.320;8.054;2024-02-26T07:54:47;98020.66;;;4.15;100.00
35908;BME280;22003;50.320;8.054;2024-02-26T07:57:13;98021.16;;;4.09;100.00
35908;BME280;22003;50.320;8.054;2024-02-26T07:59:41;98027.34;;;4.08;100.00
35908;BME280;22003;50.320;8.054;2024-02-26T08:02:06;98002.81;;;3.98;100.00
35908;BME280;22003;50.320;8.054;2024-02-26T08:04:32;98019.91;;;4.36;100.00
35908;BME280;22003;50.320;8.054;2024-02-26T08:06:58;98021.59;;;4.26;100.00
35908;BME280;22003;50.320;8.054;2024-02-26T08:09:23;98028.72;;;4.46;100.00
35908;BME280;22003;50.320;8.054;2024-02-26T08:11:48;98031.38;;;4.35;100.00
35908;BME280;22003;50.320;8.054;2024-02-26T08:14:13;98027.88;;;4.45;100.00
35908;BME280;22003;50.320;8.054;2024-02-26T08:16:39;98037.09;;;4.40;100.00
35908;BME280;22003;50.320;8.054;2024-02-26T08:19:04;98042.56;;;4.37;100.00
35908;BME280;22003;50.320;8.054;2024-02-26T08:21:29;97982.59;;;4.00;100.00
35908;BME280;22003;50.320;8.054;2024-02-26T08:23:54;98041.47;;;4.50;100.00
35908;BME280;22003;50.320;8.054;2024-02-26T08:26:20;98047.41;;;4.53;100.00
35908;BME280;22003;50.320;8.054;2024-02-26T08:28:47;98021.84;;;4.34;100.00
35908;BME280;22003;50.320;8.054;2024-02-26T08:31:14;98017.16;;;4.37;100.00
35908;BME280;22003;50.320;8.054;2024-02-26T08:33:39;98064.22;;;4.61;100.00
35908;BME280;22003;50.320;8.054;2024-02-26T08:36:05;98050.50;;;4.58;100.00
35908;BME280;22003;50.320;8.054;2024-02-26T08:38:31;98051.69;;;4.54;100.00
35908;BME280;22003;50.320;8.054;2024-02-26T08:40:56;98056.56;;;4.58;100.00
35908;BME280;22003;50.320;8.054;2024-02-26T08:43:21;98055.88;;;4.56;100.00
35908;BME280;22003;50.320;8.054;2024-02-26T08:45:47;98058.59;;;4.55;100.00
35908;BME280;22003;50.320;8.054;2024-02-26T08:48:12;98055.94;;;4.66;100.00
35908;BME280;22003;50.320;8.054;2024-02-26T08:50:37;98016.69;;;4.32;100.00
35908;BME280;22003;50.320;8.054;2024-02-26T08:53:02;98065.03;;;4.62;100.00
35908;BME280;22003;50.320;8.054;2024-02-26T08:55:29;98072.50;;;4.78;100.00
35908;BME280;22003;50.320;8.054;2024-02-26T08:57:54;98071.81;;;4.64;100.00
35908;BME280;22003;50.320;8.054;2024-02-26T09:00:19;98073.28;;;4.57;100.00
35908;BME280;22003;50.320;8.054;2024-02-26T09:02:46;98081.28;;;4.56;100.00
35908;BME280;22003;50.320;8.054;2024-02-26T09:05:12;98077.31;;;4.61;100.00
35908;BME280;22003;50.320;8.054;2024-02-26T09:07:37;98076.84;;;4.56;100.00
35908;BME280;22003;50.320;8.054;2024-02-26T09:10:02;98084.81;;;4.55;100.00
35908;BME280;22003;50.320;8.054;2024-02-26T09:12:27;98036.88;;;4.20;100.00
35908;BME280;22003;50.320;8.054;2024-02-26T09:14:53;98083.94;;;4.76;100.00
35908;BME280;22003;50.320;8.054;2024-02-26T09:17:20;98083.28;;;4.63;100.00
35908;BME280;22003;50.320;8.054;2024-02-26T09:19:46;98085.88;;;4.63;100.00
35908;BME280;22003;50.320;8.054;2024-02-26T09:22:11;98085.53;;;4.68;100.00
35908;BME280;22003;50.320;8.054;2024-02-26T09:24:36;98087.78;;;4.72;100.00
35908;BME280;22003;50.320;8.054;2024-02-26T09:27:02;98083.38;;;4.73;100.00
35908;BME280;22003;50.320;8.054;2024-02-26T09:29:27;98075.97;;;4.78;100.00
35908;BME280;22003;50.320;8.054;2024-02-26T09:31:52;98073.34;;;4.78;100.00
35908;BME280;22003;50.320;8.054;2024-02-26T09:34:17;98074.16;;;4.79;100.00
35908;BME280;22003;50.320;8.054;2024-02-26T09:36:43;98034.56;;;4.38;100.00
35908;BME280;22003;50.320;8.054;2024-02-26T09:39:08;98082.53;;;4.72;100.00
35908;BME280;22003;50.320;8.054;2024-02-26T09:41:36;98093.72;;;4.74;100.00
35908;BME280;22003;50.320;8.054;2024-02-26T09:44:02;98102.44;;;4.75;100.00
35908;BME280;22003;50.320;8.054;2024-02-26T09:46:29;98106.25;;;4.71;100.00
35908;BME280;22003;50.320;8.054;2024-02-26T09:48:55;98096.72;;;4.70;100.00
35908;BME280;22003;50.320;8.054;2024-02-26T09:51:24;98102.69;;;4.72;100.00
35908;BME280;22003;50.320;8.054;2024-02-26T09:53:51;98075.44;;;4.52;100.00
35908;BME280;22003;50.320;8.054;2024-02-26T09:56:17;98043.34;;;4.48;100.00
35908;BME280;22003;50.320;8.054;2024-02-26T09:58:42;98109.94;;;4.80;100.00
35908;BME280;22003;50.320;8.054;2024-02-26T10:01:14;98098.03;;;4.75;100.00
35908;BME280;22003;50.320;8.054;2024-02-26T10:03:41;98098.84;;;4.76;100.00
35908;BME280;22003;50.320;8.054;2024-02-26T10:06:09;98103.06;;;4.67;100.00
35908;BME280;22003;50.320;8.054;2024-02-26T10:08:35;98108.78;;;4.72;100.00
35908;BME280;22003;50.320;8.054;2024-02-26T10:11:01;98116.72;;;4.82;100.00
35908;BME280;22003;50.320;8.054;2024-02-26T10:13:26;98118.53;;;4.70;100.00
35908;BME280;22003;50.320;8.054;2024-02-26T10:15:51;98129.50;;;4.75;100.00
35908;BME280;22003;50.320;8.054;2024-02-26T10:18:17;98132.59;;;4.81;100.00
35908;BME280;22003;50.320;8.054;2024-02-26T10:20:42;98129.72;;;4.84;100.00
35908;BME280;22003;50.320;8.054;2024-02-26T10:23:07;98122.31;;;4.89;100.00
35908;BME280;22003;50.320;8.054;2024-02-26T10:25:33;98129.94;;;4.92;100.00
35908;BME280;22003;50.320;8.054;2024-02-26T10:28:01;98090.25;;;4.85;100.00
35908;BME280;22003;50.320;8.054;2024-02-26T10:30:29;98130.28;;;5.30;100.00
35908;BME280;22003;50.320;8.054;2024-02-26T10:32:56;98133.88;;;5.29;100.00
35908;BME280;22003;50.320;8.054;2024-02-26T10:35:22;98139.72;;;5.33;100.00
35908;BME280;22003;50.320;8.054;2024-02-26T10:37:49;98133.59;;;5.33;100.00
35908;BME280;22003;50.320;8.054;2024-02-26T10:40:15;98093.44;;;5.00;100.00
35908;BME280;22003;50.320;8.054;2024-02-26T10:42:41;98141.94;;;5.38;100.00
35908;BME280;22003;50.320;8.054;2024-02-26T10:45:08;98145.91;;;5.32;100.00
35908;BME280;22003;50.320;8.054;2024-02-26T10:47:37;98148.41;;;5.34;100.00
35908;BME280;22003;50.320;8.054;2024-02-26T10:50:04;98145.03;;;5.43;100.00
35908;BME280;22003;50.320;8.054;2024-02-26T10:52:34;98154.22;;;5.37;100.00
35908;BME280;22003;50.320;8.054;2024-02-26T10:55:04;98149.25;;;5.34;100.00
35908;BME280;22003;50.320;8.054;2024-02-26T10:57:35;98157.69;;;5.38;100.00
35908;BME280;22003;50.320;8.054;2024-02-26T11:00:03;98157.19;;;5.44;100.00
35908;BME280;22003;50.320;8.054;2024-02-26T11:02:35;98154.50;;;5.55;100.00
35908;BME280;22003;50.320;8.054;2024-02-26T11:05:04;98172.91;;;5.55;100.00
35908;BME280;22003;50.320;8.054;2024-02-26T11:07:31;98161.50;;;5.66;100.00
35908;BME280;22003;50.320;8.054;2024-02-26T11:10:00;98168.94;;;5.81;100.00
35908;BME280;22003;50.320;8.054;2024-02-26T11:12:27;98170.13;;;5.89;100.00
35908;BME280;22003;50.320;8.054;2024-02-26T11:14:54;98170.50;;;5.84;100.00
35908;BME280;22003;50.320;8.054;2024-02-26T11:17:22;98172.25;;;5.95;100.00
35908;BME280;22003;50.320;8.054;2024-02-26T11:19:49;98127.56;;;5.74;100.00
35908;BME280;22003;50.320;8.054;2024-02-26T11:22:15;98181.72;;;6.28;100.00
35908;BME280;22003;50.320;8.054;2024-02-26T11:24:40;98183.53;;;6.27;100.00
35908;BME280;22003;50.320;8.054;2024-02-26T11:27:09;98187.34;;;6.84;100.00
35908;BME280;22003;50.320;8.054;2024-02-26T11:29:43;98190.31;;;6.70;100.00
35908;BME280;22003;50.320;8.054;2024-02-26T11:32:09;98186.28;;;6.56;100.00
35908;BME280;22003;50.320;8.054;2024-02-26T11:34:34;98189.78;;;6.36;100.00
35908;BME280;22003;50.320;8.054;2024-02-26T11:37:14;98189.31;;;6.52;100.00
35908;BME280;22003;50.320;8.054;2024-02-26T11:39:41;98182.63;;;6.48;100.00
35908;BME280;22003;50.320;8.054;2024-02-26T11:42:07;98181.69;;;6.58;100.00
35908;BME280;22003;50.320;8.054;2024-02-26T11:44:33;98187.09;;;6.57;100.00
35908;BME280;22003;50.320;8.054;2024-02-26T11:47:09;98166.38;;;6.73;100.00
35908;BME280;22003;50.320;8.054;2024-02-26T11:49:35;98183.66;;;6.56;100.00
35908;BME280;22003;50.320;8.054;2024-02-26T11:52:05;98177.28;;;6.28;100.00
35908;BME280;22003;50.320;8.054;2024-02-26T11:57:28;98186.63;;;6.42;100.00
35908;BME280;22003;50.320;8.054;2024-02-26T11:59:55;98146.28;;;6.01;100.00
35908;BME280;22003;50.320;8.054;2024-02-26T12:05:19;98136.97;;;6.18;100.00
35908;BME280;22003;50.320;8.054;2024-02-26T12:08:02;98192.63;;;6.54;100.00
35908;BME280;22003;50.320;8.054;2024-02-26T12:10:33;98188.41;;;6.72;100.00
35908;BME280;22003;50.320;8.054;2024-02-26T12:13:13;98191.56;;;6.66;100.00
35908;BME280;22003;50.320;8.054;2024-02-26T12:15:43;98199.19;;;6.69;100.00
35908;BME280;22003;50.320;8.054;2024-02-26T12:18:09;98195.34;;;6.73;100.00
35908;BME280;22003;50.320;8.054;2024-02-26T12:20:36;98198.59;;;6.56;100.00
35908;BME280;22003;50.320;8.054;2024-02-26T12:23:02;98201.19;;;6.46;100.00
35908;BME280;22003;50.320;8.054;2024-02-26T12:25:29;98190.81;;;6.54;100.00
35908;BME280;22003;50.320;8.054;2024-02-26T12:27:55;98205.97;;;6.62;100.00
35908;BME280;22003;50.320;8.054;2024-02-26T12:30:21;98177.75;;;6.43;100.00
35908;BME280;22003;50.320;8.054;2024-02-26T12:32:48;98218.59;;;6.68;100.00
35908;BME280;22003;50.320;8.054;2024-02-26T12:35:14;98214.84;;;6.71;100.00
35908;BME280;22003;50.320;8.054;2024-02-26T12:37:39;98224.09;;;6.65;100.00
35908;BME280;22003;50.320;8.054;2024-02-26T12:40:07;98136.59;;;6.02;100.00
35908;BME280;22003;50.320;8.054;2024-02-26T12:42:33;98221.25;;;6.47;100.00
35908;BME280;22003;50.320;8.054;2024-02-26T12:45:08;98218.59;;;6.68;100.00
35908;BME280;22003;50.320;8.054;2024-02-26T12:47:41;98177.94;;;6.51;100.00
35908;BME280;22003;50.320;8.054;2024-02-26T12:50:08;98223.94;;;6.97;100.00
35908;BME280;22003;50.320;8.054;2024-02-26T12:52:35;98222.25;;;6.86;100.00
35908;BME280;22003;50.320;8.054;2024-02-26T12:55:04;98153.88;;;6.56;100.00
35908;BME280;22003;50.320;8.054;2024-02-26T12:57:31;98214.44;;;7.06;100.00
35908;BME280;22003;50.320;8.054;2024-02-26T12:59:58;98188.81;;;6.77;100.00
35908;BME280;22003;50.320;8.054;2024-02-26T13:02:24;98221.50;;;7.05;100.00